Weather at İstanbul Atatürk Airport

Public forecast

Using degrees Celsius for public forecast. Weather courtesy of forecast.io.

Current aviation weather report (METAR) for İstanbul Atatürk Airport

Retrieved 2021/03/09 05:20 UTC (38 minutes ago):

LTBA 090520Z 00000KT CAVOK 04/03 Q1018 NOSIG RMK RWY23 00000KT

Aviation forecast (TAF) for İstanbul Atatürk Airport

Forecast is more than 6 hours old.

Retrieved 2021/03/08 18:03 UTC (12 hours ago):

TAF LTBA 081640Z 0818/0924 VRB02KT CAVOK BECMG 0906/0909 SCT025 BKN080 PROB30 TEMPO 0911/0915 -SHRA BKN025 BECMG 0912/0915 03012KT